sensor_id;sensor_type;location;lat;lon;timestamp;pressure;altitude;pressure_sealevel;temperature;humidity
70841;BME280;58465;51.534;9.934;2022-09-17T00:00:55;99153.91;;;11.61;76.57
70841;BME280;58465;51.534;9.934;2022-09-17T00:03:20;99149.38;;;11.63;76.46
70841;BME280;58465;51.534;9.934;2022-09-17T00:05:47;99153.69;;;11.65;76.75
70841;BME280;58465;51.534;9.934;2022-09-17T00:08:13;99154.78;;;11.61;76.36
70841;BME280;58465;51.534;9.934;2022-09-17T00:10:41;99150.31;;;11.62;76.80
70841;BME280;58465;51.534;9.934;2022-09-17T00:13:07;99160.84;;;11.65;77.27
70841;BME280;58465;51.534;9.934;2022-09-17T00:15:39;99141.69;;;11.53;77.16
70841;BME280;58465;51.534;9.934;2022-09-17T00:18:05;99152.53;;;11.50;77.37
70841;BME280;58465;51.534;9.934;2022-09-17T00:20:30;99147.19;;;11.50;77.98
70841;BME280;58465;51.534;9.934;2022-09-17T00:22:55;99150.19;;;11.43;78.47
70841;BME280;58465;51.534;9.934;2022-09-17T00:25:21;99159.84;;;11.45;78.81
70841;BME280;58465;51.534;9.934;2022-09-17T00:27:46;99149.59;;;11.35;79.16
70841;BME280;58465;51.534;9.934;2022-09-17T00:30:12;99153.22;;;11.34;79.26
70841;BME280;58465;51.534;9.934;2022-09-17T00:32:38;99160.16;;;11.38;79.88
70841;BME280;58465;51.534;9.934;2022-09-17T00:35:03;99159.56;;;11.31;79.69
70841;BME280;58465;51.534;9.934;2022-09-17T00:37:29;99157.91;;;11.27;80.44
70841;BME280;58465;51.534;9.934;2022-09-17T00:39:54;99159.78;;;11.25;81.32
70841;BME280;58465;51.534;9.934;2022-09-17T00:42:20;99164.25;;;11.25;81.72
70841;BME280;58465;51.534;9.934;2022-09-17T00:44:50;99161.81;;;11.19;81.62
70841;BME280;58465;51.534;9.934;2022-09-17T00:47:32;99161.16;;;11.13;82.22
70841;BME280;58465;51.534;9.934;2022-09-17T00:50:40;99161.41;;;11.06;82.28
70841;BME280;58465;51.534;9.934;2022-09-17T00:53:15;99168.56;;;11.05;82.83
70841;BME280;58465;51.534;9.934;2022-09-17T00:55:46;99159.91;;;10.99;83.07
70841;BME280;58465;51.534;9.934;2022-09-17T00:58:14;99151.69;;;11.05;83.79
70841;BME280;58465;51.534;9.934;2022-09-17T01:00:42;99159.56;;;11.08;83.54
70841;BME280;58465;51.534;9.934;2022-09-17T01:03:07;99152.47;;;11.07;83.78
70841;BME280;58465;51.534;9.934;2022-09-17T01:05:44;99157.66;;;11.11;83.95
70841;BME280;58465;51.534;9.934;2022-09-17T01:11:23;99168.56;;;11.05;83.93
70841;BME280;58465;51.534;9.934;2022-09-17T01:13:51;99171.31;;;11.04;84.04
70841;BME280;58465;51.534;9.934;2022-09-17T01:16:43;99173.47;;;10.94;84.05
70841;BME280;58465;51.534;9.934;2022-09-17T01:19:28;99165.44;;;10.94;84.79
70841;BME280;58465;51.534;9.934;2022-09-17T01:24:47;99169.31;;;11.09;84.70
70841;BME280;58465;51.534;9.934;2022-09-17T01:35:09;99165.31;;;10.97;84.97
70841;BME280;58465;51.534;9.934;2022-09-17T01:38:00;99171.94;;;11.10;85.19
70841;BME280;58465;51.534;9.934;2022-09-17T01:43:26;99177.28;;;11.10;84.65
70841;BME280;58465;51.534;9.934;2022-09-17T01:46:12;99171.22;;;11.05;85.07
70841;BME280;58465;51.534;9.934;2022-09-17T01:48:43;99164.97;;;11.06;84.93
70841;BME280;58465;51.534;9.934;2022-09-17T01:51:15;99175.38;;;11.14;85.06
70841;BME280;58465;51.534;9.934;2022-09-17T01:53:50;99169.84;;;11.19;85.50
70841;BME280;58465;51.534;9.934;2022-09-17T01:56:21;99182.94;;;11.25;85.04
70841;BME280;58465;51.534;9.934;2022-09-17T01:58:59;99185.47;;;11.29;85.21
70841;BME280;58465;51.534;9.934;2022-09-17T02:01:28;99180.88;;;11.33;85.38
70841;BME280;58465;51.534;9.934;2022-09-17T02:04:04;99187.84;;;11.37;84.99
70841;BME280;58465;51.534;9.934;2022-09-17T02:06:37;99187.84;;;11.37;84.58
70841;BME280;58465;51.534;9.934;2022-09-17T02:09:12;99187.97;;;11.34;84.54
70841;BME280;58465;51.534;9.934;2022-09-17T02:11:42;99191.78;;;11.27;84.77
70841;BME280;58465;51.534;9.934;2022-09-17T02:14:19;99193.53;;;11.28;85.28
70841;BME280;58465;51.534;9.934;2022-09-17T02:16:50;99189.94;;;11.29;85.12
70841;BME280;58465;51.534;9.934;2022-09-17T02:19:23;99195.91;;;11.35;85.47
70841;BME280;58465;51.534;9.934;2022-09-17T02:25:09;99190.66;;;11.34;84.52
70841;BME280;58465;51.534;9.934;2022-09-17T02:27:36;99189.81;;;11.32;84.87
70841;BME280;58465;51.534;9.934;2022-09-17T02:30:03;99198.81;;;11.29;85.15
70841;BME280;58465;51.534;9.934;2022-09-17T02:32:28;99190.56;;;11.35;85.50
70841;BME280;58465;51.534;9.934;2022-09-17T02:34:53;99200.16;;;11.41;85.73
70841;BME280;58465;51.534;9.934;2022-09-17T02:37:19;99200.16;;;11.41;85.07
70841;BME280;58465;51.534;9.934;2022-09-17T02:39:45;99193.81;;;11.43;85.24
70841;BME280;58465;51.534;9.934;2022-09-17T02:42:32;99199.91;;;11.47;85.17
70841;BME280;58465;51.534;9.934;2022-09-17T02:45:32;99201.75;;;11.45;84.86
70841;BME280;58465;51.534;9.934;2022-09-17T02:48:39;99200.38;;;11.35;84.69
70841;BME280;58465;51.534;9.934;2022-09-17T02:54:20;99201.66;;;11.48;85.13
70841;BME280;58465;51.534;9.934;2022-09-17T02:59:33;99210.19;;;11.58;84.43
70841;BME280;58465;51.534;9.934;2022-09-17T03:02:11;99210.19;;;11.58;84.54
70841;BME280;58465;51.534;9.934;2022-09-17T03:04:41;99213.56;;;11.63;84.63
70841;BME280;58465;51.534;9.934;2022-09-17T03:07:08;99211.00;;;11.60;84.45
70841;BME280;58465;51.534;9.934;2022-09-17T03:09:34;99212.84;;;11.58;84.39
70841;BME280;58465;51.534;9.934;2022-09-17T03:12:00;99219.13;;;11.57;84.30
70841;BME280;58465;51.534;9.934;2022-09-17T03:14:26;99211.06;;;11.58;84.43
70841;BME280;58465;51.534;9.934;2022-09-17T03:16:51;99215.47;;;11.59;84.13
70841;BME280;58465;51.534;9.934;2022-09-17T03:19:17;99211.88;;;11.60;84.20
70841;BME280;58465;51.534;9.934;2022-09-17T03:21:42;99220.75;;;11.61;83.89
70841;BME280;58465;51.534;9.934;2022-09-17T03:24:07;99232.75;;;11.50;83.87
70841;BME280;58465;51.534;9.934;2022-09-17T03:26:34;99221.50;;;11.42;83.88
70841;BME280;58465;51.534;9.934;2022-09-17T03:29:00;99225.03;;;11.43;83.74
70841;BME280;58465;51.534;9.934;2022-09-17T03:31:25;99216.19;;;11.41;83.28
70841;BME280;58465;51.534;9.934;2022-09-17T03:33:51;99219.50;;;11.47;83.44
70841;BME280;58465;51.534;9.934;2022-09-17T03:36:16;99220.25;;;11.51;83.41
70841;BME280;58465;51.534;9.934;2022-09-17T03:38:41;99216.50;;;11.55;82.83
70841;BME280;58465;51.534;9.934;2022-09-17T03:41:06;99223.56;;;11.58;82.99
70841;BME280;58465;51.534;9.934;2022-09-17T03:43:32;99231.25;;;11.65;83.11
70841;BME280;58465;51.534;9.934;2022-09-17T03:45:58;99224.94;;;11.68;83.08
70841;BME280;58465;51.534;9.934;2022-09-17T03:48:25;99236.16;;;11.77;82.28
70841;BME280;58465;51.534;9.934;2022-09-17T03:50:50;99236.16;;;11.77;81.66
70841;BME280;58465;51.534;9.934;2022-09-17T03:53:15;99230.81;;;11.77;81.21
70841;BME280;58465;51.534;9.934;2022-09-17T03:55:41;99233.53;;;11.76;81.87
70841;BME280;58465;51.534;9.934;2022-09-17T03:58:06;99237.09;;;11.76;81.66
70841;BME280;58465;51.534;9.934;2022-09-17T04:00:31;99237.25;;;11.72;81.43
70841;BME280;58465;51.534;9.934;2022-09-17T04:02:57;99244.78;;;11.62;82.07
70841;BME280;58465;51.534;9.934;2022-09-17T04:05:22;99248.09;;;11.45;82.98
70841;BME280;58465;51.534;9.934;2022-09-17T04:07:48;99242.06;;;11.40;83.57
70841;BME280;58465;51.534;9.934;2022-09-17T04:10:13;99237.91;;;11.33;83.65
70841;BME280;58465;51.534;9.934;2022-09-17T04:12:40;99257.75;;;11.26;84.28
70841;BME280;58465;51.534;9.934;2022-09-17T04:15:06;99253.41;;;11.24;84.38
70841;BME280;58465;51.534;9.934;2022-09-17T04:17:32;99263.97;;;11.27;85.03
70841;BME280;58465;51.534;9.934;2022-09-17T04:19:58;99265.81;;;11.25;84.90
70841;BME280;58465;51.534;9.934;2022-09-17T04:22:24;99257.97;;;11.20;85.48
70841;BME280;58465;51.534;9.934;2022-09-17T04:24:49;99256.63;;;11.08;85.72
70841;BME280;58465;51.534;9.934;2022-09-17T04:27:14;99263.91;;;11.05;85.80
70841;BME280;58465;51.534;9.934;2022-09-17T04:29:40;99261.16;;;11.06;86.47
70841;BME280;58465;51.534;9.934;2022-09-17T04:32:05;99261.06;;;11.09;86.42
70841;BME280;58465;51.534;9.934;2022-09-17T04:34:30;99264.59;;;11.10;86.72
70841;BME280;58465;51.534;9.934;2022-09-17T04:36:57;99268.09;;;11.12;86.49
70841;BME280;58465;51.534;9.934;2022-09-17T04:39:22;99262.63;;;11.15;87.21
70841;BME280;58465;51.534;9.934;2022-09-17T04:41:47;99267.97;;;11.15;86.73
70841;BME280;58465;51.534;9.934;2022-09-17T04:44:13;99271.63;;;11.12;86.41
70841;BME280;58465;51.534;9.934;2022-09-17T04:46:38;99266.50;;;11.06;86.36
70841;BME280;58465;51.534;9.934;2022-09-17T04:49:03;99271.94;;;11.05;86.14
70841;BME280;58465;51.534;9.934;2022-09-17T04:51:29;99278.25;;;11.02;86.43
70841;BME280;58465;51.534;9.934;2022-09-17T04:53:54;99280.66;;;10.85;85.82
70841;BME280;58465;51.534;9.934;2022-09-17T04:56:19;99280.81;;;10.81;86.44
70841;BME280;58465;51.534;9.934;2022-09-17T04:58:44;99281.97;;;10.73;86.52
70841;BME280;58465;51.534;9.934;2022-09-17T05:01:10;99286.34;;;10.76;86.54
70841;BME280;58465;51.534;9.934;2022-09-17T05:03:37;99284.78;;;10.69;86.32
70841;BME280;58465;51.534;9.934;2022-09-17T05:06:03;99291.78;;;10.73;86.62
70841;BME280;58465;51.534;9.934;2022-09-17T05:08:28;99286.94;;;10.84;86.36
70841;BME280;58465;51.534;9.934;2022-09-17T05:10:53;99297.72;;;10.81;85.70
70841;BME280;58465;51.534;9.934;2022-09-17T05:13:19;99302.34;;;10.76;85.82
70841;BME280;58465;51.534;9.934;2022-09-17T05:15:44;99308.00;;;10.67;85.51
70841;BME280;58465;51.534;9.934;2022-09-17T05:18:09;99301.63;;;10.71;85.53
70841;BME280;58465;51.534;9.934;2022-09-17T05:20:35;99302.41;;;10.74;85.15
70841;BME280;58465;51.534;9.934;2022-09-17T05:23:00;99311.06;;;10.81;85.21
70841;BME280;58465;51.534;9.934;2022-09-17T05:25:25;99316.41;;;10.81;84.81
70841;BME280;58465;51.534;9.934;2022-09-17T05:27:52;99319.03;;;10.83;84.61
70841;BME280;58465;51.534;9.934;2022-09-17T05:30:17;99319.03;;;10.83;84.90
70841;BME280;58465;51.534;9.934;2022-09-17T05:32:43;99320.09;;;10.77;83.92
70841;BME280;58465;51.534;9.934;2022-09-17T05:35:09;99310.19;;;10.81;84.09
70841;BME280;58465;51.534;9.934;2022-09-17T05:37:35;99321.97;;;10.75;82.97
70841;BME280;58465;51.534;9.934;2022-09-17T05:40:02;99322.03;;;10.73;82.66
70841;BME280;58465;51.534;9.934;2022-09-17T05:42:29;99318.66;;;10.67;82.82
70841;BME280;58465;51.534;9.934;2022-09-17T05:44:54;99320.66;;;10.62;82.83
70841;BME280;58465;51.534;9.934;2022-09-17T05:47:19;99335.88;;;10.58;83.06
70841;BME280;58465;51.534;9.934;2022-09-17T05:49:44;99335.00;;;10.58;83.14
70841;BME280;58465;51.534;9.934;2022-09-17T05:52:10;99334.56;;;10.71;83.26
70841;BME280;58465;51.534;9.934;2022-09-17T05:54:35;99337.19;;;10.73;81.19
70841;BME280;58465;51.534;9.934;2022-09-17T05:57:00;99344.88;;;10.82;81.58
70841;BME280;58465;51.534;9.934;2022-09-17T05:59:26;99346.50;;;10.86;81.47
70841;BME280;58465;51.534;9.934;2022-09-17T06:01:52;99355.56;;;10.82;80.94
70841;BME280;58465;51.534;9.934;2022-09-17T06:04:17;99358.28;;;10.81;81.22
70841;BME280;58465;51.534;9.934;2022-09-17T06:06:42;99351.34;;;10.75;80.43
70841;BME280;58465;51.534;9.934;2022-09-17T06:09:08;99362.44;;;10.89;80.93
70841;BME280;58465;51.534;9.934;2022-09-17T06:11:35;99356.81;;;10.97;80.46
70841;BME280;58465;51.534;9.934;2022-09-17T06:14:00;99355.56;;;11.07;79.13
70841;BME280;58465;51.534;9.934;2022-09-17T06:16:25;99352.47;;;11.19;78.76
70841;BME280;58465;51.534;9.934;2022-09-17T06:18:51;99352.06;;;11.30;78.10
70841;BME280;58465;51.534;9.934;2022-09-17T06:21:17;99346.63;;;11.33;78.13
70841;BME280;58465;51.534;9.934;2022-09-17T06:23:43;99341.63;;;11.24;76.89
70841;BME280;58465;51.534;9.934;2022-09-17T06:26:10;99348.09;;;11.16;77.32
70841;BME280;58465;51.534;9.934;2022-09-17T06:28:36;99347.16;;;11.18;77.85
70841;BME280;58465;51.534;9.934;2022-09-17T06:31:03;99348.22;;;11.13;76.61
70841;BME280;58465;51.534;9.934;2022-09-17T06:33:30;99348.13;;;11.15;76.70
70841;BME280;58465;51.534;9.934;2022-09-17T06:35:57;99346.28;;;11.17;76.63
70841;BME280;58465;51.534;9.934;2022-09-17T06:38:28;99349.50;;;11.27;76.14
70841;BME280;58465;51.534;9.934;2022-09-17T06:40:53;99356.41;;;11.34;76.10
70841;BME280;58465;51.534;9.934;2022-09-17T06:43:20;99353.38;;;11.43;75.95
70841;BME280;58465;51.534;9.934;2022-09-17T06:45:52;99354.41;;;11.39;75.48
70841;BME280;58465;51.534;9.934;2022-09-17T06:48:18;99354.84;;;11.27;75.14
70841;BME280;58465;51.534;9.934;2022-09-17T06:50:43;99351.34;;;11.25;75.73
70841;BME280;58465;51.534;9.934;2022-09-17T06:53:09;99378.81;;;11.30;74.81
70841;BME280;58465;51.534;9.934;2022-09-17T06:55:34;99365.19;;;11.36;74.51
70841;BME280;58465;51.534;9.934;2022-09-17T06:57:59;99373.25;;;11.59;74.69
70841;BME280;58465;51.534;9.934;2022-09-17T07:00:25;99367.97;;;11.58;74.30
70841;BME280;58465;51.534;9.934;2022-09-17T07:02:57;99354.31;;;11.65;73.47
70841;BME280;58465;51.534;9.934;2022-09-17T07:05:24;99371.69;;;11.78;73.47
70841;BME280;58465;51.534;9.934;2022-09-17T07:07:50;99373.22;;;11.84;73.12
70841;BME280;58465;51.534;9.934;2022-09-17T07:10:15;99372.50;;;11.80;72.77
70841;BME280;58465;51.534;9.934;2022-09-17T07:12:42;99364.31;;;12.07;71.28
70841;BME280;58465;51.534;9.934;2022-09-17T07:15:08;99379.66;;;12.25;71.16
70841;BME280;58465;51.534;9.934;2022-09-17T07:17:38;99371.13;;;12.37;70.38
70841;BME280;58465;51.534;9.934;2022-09-17T07:20:05;99367.03;;;12.29;71.03
70841;BME280;58465;51.534;9.934;2022-09-17T07:22:31;99373.22;;;12.07;70.99
70841;BME280;58465;51.534;9.934;2022-09-17T07:24:56;99374.56;;;11.96;71.18
70841;BME280;58465;51.534;9.934;2022-09-17T07:27:22;99368.91;;;11.81;71.40
70841;BME280;58465;51.534;9.934;2022-09-17T07:29:48;99380.28;;;11.86;71.66
70841;BME280;58465;51.534;9.934;2022-09-17T07:32:14;99375.81;;;11.87;71.63
70841;BME280;58465;51.534;9.934;2022-09-17T07:34:39;99372.34;;;11.83;71.00
70841;BME280;58465;51.534;9.934;2022-09-17T07:37:04;99382.03;;;11.87;71.30
70841;BME280;58465;51.534;9.934;2022-09-17T07:39:30;99374.16;;;11.83;71.83
70841;BME280;58465;51.534;9.934;2022-09-17T07:41:55;99372.72;;;11.73;71.64
70841;BME280;58465;51.534;9.934;2022-09-17T07:44:21;99372.13;;;12.35;69.91
70841;BME280;58465;51.534;9.934;2022-09-17T07:46:46;99382.38;;;13.09;67.47
70841;BME280;58465;51.534;9.934;2022-09-17T07:49:12;99378.22;;;13.24;66.19
70841;BME280;58465;51.534;9.934;2022-09-17T07:51:37;99384.28;;;13.48;65.73
70841;BME280;58465;51.534;9.934;2022-09-17T07:54:03;99382.94;;;13.37;65.50
70841;BME280;58465;51.534;9.934;2022-09-17T07:56:28;99377.63;;;12.95;66.53
70841;BME280;58465;51.534;9.934;2022-09-17T07:58:54;99394.25;;;13.25;66.51
70841;BME280;58465;51.534;9.934;2022-09-17T08:01:19;99386.69;;;13.13;65.21
70841;BME280;58465;51.534;9.934;2022-09-17T08:03:48;99387.09;;;13.04;65.97
70841;BME280;58465;51.534;9.934;2022-09-17T08:06:16;99382.16;;;13.15;66.17
70841;BME280;58465;51.534;9.934;2022-09-17T08:08:42;99380.34;;;13.16;65.18
70841;BME280;58465;51.534;9.934;2022-09-17T08:11:10;99385.06;;;13.09;65.40
70841;BME280;58465;51.534;9.934;2022-09-17T08:13:36;99377.63;;;12.95;64.31
70841;BME280;58465;51.534;9.934;2022-09-17T08:16:05;99378.84;;;12.67;64.32
70841;BME280;58465;51.534;9.934;2022-09-17T08:18:31;99391.16;;;12.71;65.73
70841;BME280;58465;51.534;9.934;2022-09-17T08:20:57;99387.44;;;12.75;65.89
70841;BME280;58465;51.534;9.934;2022-09-17T08:23:24;99383.00;;;12.74;65.77
70841;BME280;58465;51.534;9.934;2022-09-17T08:25:57;99389.06;;;12.99;64.96
70841;BME280;58465;51.534;9.934;2022-09-17T08:28:23;99383.16;;;13.33;63.67
70841;BME280;58465;51.534;9.934;2022-09-17T08:30:52;99383.31;;;13.69;62.59
70841;BME280;58465;51.534;9.934;2022-09-17T08:33:19;99369.22;;;14.03;60.96
70841;BME280;58465;51.534;9.934;2022-09-17T08:35:54;99380.03;;;14.39;59.59
70841;BME280;58465;51.534;9.934;2022-09-17T08:38:26;99374.63;;;14.58;58.55
70841;BME280;58465;51.534;9.934;2022-09-17T08:41:05;99386.09;;;14.61;58.59
70841;BME280;58465;51.534;9.934;2022-09-17T08:43:51;99387.13;;;14.59;57.89
70841;BME280;58465;51.534;9.934;2022-09-17T08:46:19;99374.22;;;14.29;58.89
70841;BME280;58465;51.534;9.934;2022-09-17T08:48:51;99386.84;;;14.46;58.65
70841;BME280;58465;51.534;9.934;2022-09-17T08:51:37;99380.75;;;14.78;58.09
70841;BME280;58465;51.534;9.934;2022-09-17T08:56:44;99378.56;;;15.04;56.99
70841;BME280;58465;51.534;9.934;2022-09-17T08:59:31;99377.28;;;15.11;55.87
70841;BME280;58465;51.534;9.934;2022-09-17T09:02:27;99383.38;;;15.32;54.76
70841;BME280;58465;51.534;9.934;2022-09-17T09:05:12;99374.53;;;15.80;53.08
70841;BME280;58465;51.534;9.934;2022-09-17T09:07:54;99378.09;;;16.29;52.64
70841;BME280;58465;51.534;9.934;2022-09-17T09:10:26;99378.28;;;16.42;51.62
70841;BME280;58465;51.534;9.934;2022-09-17T09:12:55;99386.56;;;15.90;53.81
70841;BME280;58465;51.534;9.934;2022-09-17T09:15:45;99389.59;;;15.84;53.77
70841;BME280;58465;51.534;9.934;2022-09-17T09:18:18;99395.94;;;15.48;54.99
70841;BME280;58465;51.534;9.934;2022-09-17T09:21:03;99385.69;;;14.88;54.93
70841;BME280;58465;51.534;9.934;2022-09-17T09:34:22;99393.94;;;14.66;56.29
70841;BME280;58465;51.534;9.934;2022-09-17T09:36:48;99394.44;;;14.91;56.22
70841;BME280;58465;51.534;9.934;2022-09-17T09:39:20;99392.56;;;15.10;55.97
70841;BME280;58465;51.534;9.934;2022-09-17T09:41:51;99395.09;;;15.13;55.76
70841;BME280;58465;51.534;9.934;2022-09-17T09:44:18;99394.78;;;15.37;55.07
70841;BME280;58465;51.534;9.934;2022-09-17T09:47:05;99393.59;;;15.25;54.65
70841;BME280;58465;51.534;9.934;2022-09-17T09:49:45;99401.34;;;15.31;54.48
70841;BME280;58465;51.534;9.934;2022-09-17T09:55:42;99398.97;;;15.42;53.49
70841;BME280;58465;51.534;9.934;2022-09-17T10:00:56;99399.06;;;15.06;52.70
70841;BME280;58465;51.534;9.934;2022-09-17T10:03:30;99402.63;;;15.07;51.67
70841;BME280;58465;51.534;9.934;2022-09-17T10:06:02;99397.84;;;15.29;51.96
70841;BME280;58465;51.534;9.934;2022-09-17T10:08:34;99392.94;;;14.85;52.62
70841;BME280;58465;51.534;9.934;2022-09-17T10:13:38;99395.31;;;14.37;56.30
70841;BME280;58465;51.534;9.934;2022-09-17T10:18:42;99405.28;;;14.54;56.18
70841;BME280;58465;51.534;9.934;2022-09-17T10:23:47;99385.66;;;14.70;52.71
70841;BME280;58465;51.534;9.934;2022-09-17T10:26:21;99389.28;;;14.69;52.86
70841;BME280;58465;51.534;9.934;2022-09-17T10:28:50;99384.19;;;14.63;53.39
70841;BME280;58465;51.534;9.934;2022-09-17T10:31:17;99379.97;;;14.76;53.27
70841;BME280;58465;51.534;9.934;2022-09-17T10:34:09;99373.00;;;15.58;49.76
70841;BME280;58465;51.534;9.934;2022-09-17T10:36:44;99377.19;;;15.97;48.58
70841;BME280;58465;51.534;9.934;2022-09-17T10:41:54;99383.19;;;15.69;48.46
70841;BME280;58465;51.534;9.934;2022-09-17T10:44:23;99380.94;;;15.27;47.64
70841;BME280;58465;51.534;9.934;2022-09-17T10:46:50;99381.72;;;15.12;47.40
70841;BME280;58465;51.534;9.934;2022-09-17T10:49:47;99383.16;;;15.36;46.89
70841;BME280;58465;51.534;9.934;2022-09-17T10:52:25;99364.72;;;15.46;47.58
70841;BME280;58465;51.534;9.934;2022-09-17T10:55:04;99365.59;;;15.79;47.28
70841;BME280;58465;51.534;9.934;2022-09-17T10:57:39;99367.09;;;15.85;45.99
70841;BME280;58465;51.534;9.934;2022-09-17T11:05:53;99363.91;;;16.88;43.53
70841;BME280;58465;51.534;9.934;2022-09-17T11:08:32;99360.03;;;16.62;43.85
70841;BME280;58465;51.534;9.934;2022-09-17T11:11:05;99360.34;;;16.25;45.48
70841;BME280;58465;51.534;9.934;2022-09-17T11:19:47;99361.16;;;15.28;50.41
70841;BME280;58465;51.534;9.934;2022-09-17T11:22:31;99357.13;;;15.54;50.79
70841;BME280;58465;51.534;9.934;2022-09-17T11:31:08;99365.19;;;16.97;46.78
70841;BME280;58465;51.534;9.934;2022-09-17T11:36:28;99352.28;;;18.99;42.16
70841;BME280;58465;51.534;9.934;2022-09-17T11:38:59;99373.88;;;19.78;40.31
70841;BME280;58465;51.534;9.934;2022-09-17T11:41:36;99381.09;;;18.04;46.64
70841;BME280;58465;51.534;9.934;2022-09-17T11:44:24;99378.81;;;16.32;51.73
70841;BME280;58465;51.534;9.934;2022-09-17T11:46:57;99367.75;;;15.73;51.57
70841;BME280;58465;51.534;9.934;2022-09-17T11:51:58;99357.59;;;16.42;49.40
70841;BME280;58465;51.534;9.934;2022-09-17T11:54:34;99343.03;;;17.06;47.45
70841;BME280;58465;51.534;9.934;2022-09-17T11:57:15;99329.34;;;18.10;45.42
70841;BME280;58465;51.534;9.934;2022-09-17T11:59:51;99316.03;;;19.14;44.29
70841;BME280;58465;51.534;9.934;2022-09-17T12:02:46;99320.66;;;20.26;42.69
70841;BME280;58465;51.534;9.934;2022-09-17T12:05:28;99313.72;;;20.83;39.60
70841;BME280;58465;51.534;9.934;2022-09-17T12:08:03;99301.44;;;19.80;39.94
70841;BME280;58465;51.534;9.934;2022-09-17T12:15:48;99313.84;;;18.26;41.88
70841;BME280;58465;51.534;9.934;2022-09-17T12:18:26;99307.25;;;17.61;42.05
70841;BME280;58465;51.534;9.934;2022-09-17T12:20:56;99309.56;;;17.53;42.53
70841;BME280;58465;51.534;9.934;2022-09-17T12:23:47;99307.63;;;17.26;41.77
70841;BME280;58465;51.534;9.934;2022-09-17T12:40:53;99283.91;;;17.31;40.89
70841;BME280;58465;51.534;9.934;2022-09-17T12:43:39;99283.28;;;17.85;40.36
70841;BME280;58465;51.534;9.934;2022-09-17T12:49:02;99275.47;;;17.66;40.16
70841;BME280;58465;51.534;9.934;2022-09-17T12:59:31;99325.19;;;15.64;51.12
70841;BME280;58465;51.534;9.934;2022-09-17T13:02:14;99321.63;;;14.96;55.99
70841;BME280;58465;51.534;9.934;2022-09-17T13:08:21;99318.38;;;15.06;57.45
70841;BME280;58465;51.534;9.934;2022-09-17T13:10:40;99308.69;;;15.37;56.92
70841;BME280;58465;51.534;9.934;2022-09-17T13:16:15;99305.75;;;16.06;55.05
70841;BME280;58465;51.534;9.934;2022-09-17T13:21:30;99299.31;;;17.01;50.63
70841;BME280;58465;51.534;9.934;2022-09-17T13:23:58;99282.00;;;17.33;50.01
70841;BME280;58465;51.534;9.934;2022-09-17T13:26:34;99283.03;;;17.59;48.83
70841;BME280;58465;51.534;9.934;2022-09-17T13:29:00;99271.84;;;17.09;48.30
70841;BME280;58465;51.534;9.934;2022-09-17T13:34:03;99281.09;;;16.75;47.15
70841;BME280;58465;51.534;9.934;2022-09-17T13:36:35;99285.31;;;16.49;46.51
70841;BME280;58465;51.534;9.934;2022-09-17T13:39:10;99283.31;;;16.68;46.75
70841;BME280;58465;51.534;9.934;2022-09-17T13:41:59;99288.28;;;16.90;46.15
70841;BME280;58465;51.534;9.934;2022-09-17T13:44:26;99276.84;;;17.00;46.97
70841;BME280;58465;51.534;9.934;2022-09-17T13:46:51;99288.94;;;16.79;47.71
70841;BME280;58465;51.534;9.934;2022-09-17T13:49:20;99269.91;;;16.66;47.42
70841;BME280;58465;51.534;9.934;2022-09-17T13:51:46;99268.53;;;16.44;48.57
70841;BME280;58465;51.534;9.934;2022-09-17T13:54:14;99268.66;;;16.26;49.36
70841;BME280;58465;51.534;9.934;2022-09-17T13:56:44;99271.38;;;15.95;50.98
70841;BME280;58465;51.534;9.934;2022-09-17T13:59:14;99270.66;;;15.60;51.63
70841;BME280;58465;51.534;9.934;2022-09-17T14:09:57;99273.41;;;13.08;64.36
70841;BME280;58465;51.534;9.934;2022-09-17T14:15:35;99266.38;;;13.26;64.26
70841;BME280;58465;51.534;9.934;2022-09-17T14:21:03;99268.00;;;13.67;63.14
70841;BME280;58465;51.534;9.934;2022-09-17T14:23:33;99266.56;;;13.79;61.63
70841;BME280;58465;51.534;9.934;2022-09-17T14:26:02;99257.50;;;14.18;60.23
70841;BME280;58465;51.534;9.934;2022-09-17T14:28:59;99274.34;;;14.57;60.38
70841;BME280;58465;51.534;9.934;2022-09-17T14:31:32;99271.19;;;14.66;60.00
70841;BME280;58465;51.534;9.934;2022-09-17T14:34:01;99266.25;;;14.92;59.15
70841;BME280;58465;51.534;9.934;2022-09-17T14:36:34;99250.56;;;15.17;58.00
70841;BME280;58465;51.534;9.934;2022-09-17T14:39:03;99251.31;;;15.36;56.72
70841;BME280;58465;51.534;9.934;2022-09-17T14:41:33;99244.56;;;15.45;51.73
70841;BME280;58465;51.534;9.934;2022-09-17T14:44:06;99251.06;;;15.74;52.42
70841;BME280;58465;51.534;9.934;2022-09-17T14:46:36;99229.66;;;15.86;48.42
70841;BME280;58465;51.534;9.934;2022-09-17T14:51:44;99243.50;;;15.65;48.14
70841;BME280;58465;51.534;9.934;2022-09-17T14:54:31;99247.91;;;15.66;47.47
70841;BME280;58465;51.534;9.934;2022-09-17T14:59:43;99262.19;;;15.50;47.12
70841;BME280;58465;51.534;9.934;2022-09-17T15:02:38;99258.44;;;15.37;47.67
70841;BME280;58465;51.534;9.934;2022-09-17T15:05:45;99260.41;;;15.34;47.76
70841;BME280;58465;51.534;9.934;2022-09-17T15:11:00;99262.56;;;15.60;44.67
70841;BME280;58465;51.534;9.934;2022-09-17T15:13:29;99268.03;;;15.58;44.46
70841;BME280;58465;51.534;9.934;2022-09-17T15:16:03;99281.03;;;15.50;45.34
70841;BME280;58465;51.534;9.934;2022-09-17T15:18:41;99269.84;;;15.25;46.26
70841;BME280;58465;51.534;9.934;2022-09-17T15:21:33;99272.84;;;15.19;46.43
70841;BME280;58465;51.534;9.934;2022-09-17T15:26:39;99268.41;;;15.35;46.88
70841;BME280;58465;51.534;9.934;2022-09-17T15:29:05;99267.59;;;15.17;47.57
70841;BME280;58465;51.534;9.934;2022-09-17T15:31:31;99258.19;;;15.09;48.15
70841;BME280;58465;51.534;9.934;2022-09-17T15:33:59;99250.72;;;15.14;48.79
70841;BME280;58465;51.534;9.934;2022-09-17T15:36:26;99245.88;;;15.20;48.45
70841;BME280;58465;51.534;9.934;2022-09-17T15:38:52;99237.31;;;15.30;48.69
70841;BME280;58465;51.534;9.934;2022-09-17T15:43:53;99228.78;;;15.21;48.34
70841;BME280;58465;51.534;9.934;2022-09-17T15:46:27;99241.59;;;15.49;47.96